El Khoms, Libya

8:57 PM EET on December 20, 2014 (GMT +0200)
Mitiga | Change Station
CLOSE
Current Station
Airport
Location: MITIGA,
Elevation: 36 ft
Nearby Weather Stations

Elev 36 ft 32.89 °N, 13.28 °E | Updated 2 minutes ago

Scattered Clouds
Scattered Clouds
61 °F
Feels Like 61 °F
N
6
Wind Variable Wind from SW

Today
High -- | Low -- °F
--% Chance of Precip.
Yesterday
High -- | Low -- °F
Precip. -- in
8:00 AM 6:00 PM
Waning Crescent, 2% visible
Pressure 30.39 in
Visibility 4.3 miles
Clouds Mostly Cloudy 2000 ft
Scattered Clouds 8000 ft
Dew Point 54 °F
Humidity 77%
Rainfall 0.00 in
Snow Depth Not available.
UV 0 out of 12
Pollen Not available.
Air Quality Not available.
Flu Activity Not available.
METAR HLLM 201855Z 23005KT 7000 BKN020 SCT080 16/12 Q1029

More Conditions Fewer Conditions

Pressure 30.39 in
Visibility 4.3 miles
Clouds Mostly Cloudy 2000 ft
Scattered Clouds 8000 ft
Dew Point 54 °F
Humidity 77%
Rainfall 0.00 in
Snow Depth Not available.
UV 0 out of 12
Pollen Not available.
Air Quality Not available.
Flu Activity Not available.
METAR HLLM 201855Z 23005KT 7000 BKN020 SCT080 16/12 Q1029

More Conditions Fewer Conditions

10-Day Weather Forecast

Almanac

Astronomy

Dec. 20, 2014 Rise Set
Actual Time
Civil Twilight
Nautical Twilight
Astronomical Twilight
Moon
Length of Visible Light
Length of Day
Tomorrow will be .
, % of the Moon is Illuminated

Today's Extremes

Country Highs Country Lows

Community

WunderPhotos

Upload Photos

1,779,244 photos uploaded!

WunderBlogs® & News

Nearby

Air Quality

  Air Quality AQ Index Pollutant
Not available.

Snow Depth

Station Depth Elevation

Earthquake Activity

City Distance Mag. Time & Date
Minimum magnitude displayed is 2.5.

Coastal Water Temperatures

Place Temperature

Nearby Weather Stations